sensor_id;sensor_type;location;lat;lon;timestamp;P1;durP1;ratioP1;P2;durP2;ratioP2
37087;SDS011;23002;52.676;6.432;2023-02-18T00:01:31;9.80;;;1.80;;
37087;SDS011;23002;52.676;6.432;2023-02-18T00:03:59;9.98;;;3.00;;
37087;SDS011;23002;52.676;6.432;2023-02-18T00:06:27;12.27;;;2.60;;
37087;SDS011;23002;52.676;6.432;2023-02-18T00:08:55;12.43;;;2.72;;
37087;SDS011;23002;52.676;6.432;2023-02-18T00:11:24;8.65;;;2.10;;
37087;SDS011;23002;52.676;6.432;2023-02-18T00:13:52;13.07;;;2.88;;
37087;SDS011;23002;52.676;6.432;2023-02-18T00:16:20;14.18;;;2.28;;
37087;SDS011;23002;52.676;6.432;2023-02-18T00:18:47;10.98;;;2.70;;
37087;SDS011;23002;52.676;6.432;2023-02-18T00:21:14;10.60;;;2.53;;
37087;SDS011;23002;52.676;6.432;2023-02-18T00:23:41;6.05;;;2.53;;
37087;SDS011;23002;52.676;6.432;2023-02-18T00:26:13;7.80;;;2.20;;
37087;SDS011;23002;52.676;6.432;2023-02-18T00:28:41;12.95;;;2.53;;
37087;SDS011;23002;52.676;6.432;2023-02-18T00:31:09;7.63;;;2.33;;
37087;SDS011;23002;52.676;6.432;2023-02-18T00:33:37;7.10;;;2.72;;
37087;SDS011;23002;52.676;6.432;2023-02-18T00:36:05;11.13;;;3.05;;
37087;SDS011;23002;52.676;6.432;2023-02-18T00:38:33;19.02;;;3.58;;
37087;SDS011;23002;52.676;6.432;2023-02-18T00:41:00;13.18;;;3.15;;
37087;SDS011;23002;52.676;6.432;2023-02-18T00:43:27;13.65;;;3.03;;
37087;SDS011;23002;52.676;6.432;2023-02-18T00:45:55;9.80;;;3.72;;
37087;SDS011;23002;52.676;6.432;2023-02-18T00:48:22;7.85;;;3.08;;
37087;SDS011;23002;52.676;6.432;2023-02-18T00:50:49;14.85;;;3.90;;
37087;SDS011;23002;52.676;6.432;2023-02-18T00:53:16;17.67;;;4.20;;
37087;SDS011;23002;52.676;6.432;2023-02-18T00:55:44;15.10;;;4.15;;
37087;SDS011;23002;52.676;6.432;2023-02-18T00:58:15;10.60;;;4.07;;
37087;SDS011;23002;52.676;6.432;2023-02-18T01:00:42;12.65;;;4.40;;
37087;SDS011;23002;52.676;6.432;2023-02-18T01:03:09;15.43;;;5.43;;
37087;SDS011;23002;52.676;6.432;2023-02-18T01:05:37;14.50;;;6.13;;
37087;SDS011;23002;52.676;6.432;2023-02-18T01:08:05;9.90;;;4.05;;
37087;SDS011;23002;52.676;6.432;2023-02-18T01:10:33;12.13;;;4.72;;
37087;SDS011;23002;52.676;6.432;2023-02-18T01:13:00;16.80;;;5.50;;
37087;SDS011;23002;52.676;6.432;2023-02-18T01:15:29;18.00;;;6.22;;
37087;SDS011;23002;52.676;6.432;2023-02-18T01:17:56;12.43;;;5.07;;
37087;SDS011;23002;52.676;6.432;2023-02-18T01:20:23;10.98;;;5.18;;
37087;SDS011;23002;52.676;6.432;2023-02-18T01:22:51;15.10;;;5.35;;
37087;SDS011;23002;52.676;6.432;2023-02-18T01:25:18;14.93;;;6.20;;
37087;SDS011;23002;52.676;6.432;2023-02-18T01:27:45;21.42;;;6.03;;
37087;SDS011;23002;52.676;6.432;2023-02-18T01:30:13;15.30;;;5.63;;
37087;SDS011;23002;52.676;6.432;2023-02-18T01:32:40;11.30;;;5.55;;
37087;SDS011;23002;52.676;6.432;2023-02-18T01:35:10;21.55;;;5.45;;
37087;SDS011;23002;52.676;6.432;2023-02-18T01:37:37;22.17;;;6.28;;
37087;SDS011;23002;52.676;6.432;2023-02-18T01:40:05;14.45;;;5.80;;
37087;SDS011;23002;52.676;6.432;2023-02-18T01:42:33;13.85;;;6.72;;
37087;SDS011;23002;52.676;6.432;2023-02-18T01:47:46;13.68;;;5.25;;
37087;SDS011;23002;52.676;6.432;2023-02-18T01:50:13;17.88;;;4.50;;
37087;SDS011;23002;52.676;6.432;2023-02-18T01:52:40;18.13;;;5.53;;
37087;SDS011;23002;52.676;6.432;2023-02-18T01:55:07;12.35;;;5.18;;
37087;SDS011;23002;52.676;6.432;2023-02-18T01:57:35;13.95;;;4.28;;
37087;SDS011;23002;52.676;6.432;2023-02-18T02:00:05;12.35;;;4.22;;
37087;SDS011;23002;52.676;6.432;2023-02-18T02:02:34;15.85;;;5.00;;
37087;SDS011;23002;52.676;6.432;2023-02-18T02:05:02;13.20;;;4.03;;
37087;SDS011;23002;52.676;6.432;2023-02-18T02:07:29;12.68;;;4.53;;
37087;SDS011;23002;52.676;6.432;2023-02-18T02:09:56;12.82;;;3.95;;
37087;SDS011;23002;52.676;6.432;2023-02-18T02:28:07;16.35;;;7.00;;
37087;SDS011;23002;52.676;6.432;2023-02-18T02:41:18;23.20;;;7.72;;
37087;SDS011;23002;52.676;6.432;2023-02-18T02:46:37;21.52;;;7.95;;
37087;SDS011;23002;52.676;6.432;2023-02-18T02:52:07;21.70;;;8.63;;
37087;SDS011;23002;52.676;6.432;2023-02-18T02:54:36;23.92;;;8.98;;
37087;SDS011;23002;52.676;6.432;2023-02-18T02:57:50;25.30;;;9.43;;
37087;SDS011;23002;52.676;6.432;2023-02-18T02:59:51;27.17;;;9.32;;
37087;SDS011;23002;52.676;6.432;2023-02-18T03:02:29;26.65;;;10.05;;
37087;SDS011;23002;52.676;6.432;2023-02-18T03:10:30;28.35;;;11.00;;
37087;SDS011;23002;52.676;6.432;2023-02-18T03:16:20;30.92;;;12.38;;
37087;SDS011;23002;52.676;6.432;2023-02-18T03:18:20;37.25;;;12.15;;
37087;SDS011;23002;52.676;6.432;2023-02-18T03:20:54;33.13;;;11.85;;
37087;SDS011;23002;52.676;6.432;2023-02-18T03:23:24;35.00;;;11.82;;
37087;SDS011;23002;52.676;6.432;2023-02-18T03:25:52;27.15;;;10.70;;
37087;SDS011;23002;52.676;6.432;2023-02-18T03:28:20;24.25;;;10.90;;
37087;SDS011;23002;52.676;6.432;2023-02-18T03:30:52;28.25;;;11.27;;
37087;SDS011;23002;52.676;6.432;2023-02-18T03:33:30;29.27;;;11.85;;
37087;SDS011;23002;52.676;6.432;2023-02-18T03:35:58;31.63;;;12.02;;
37087;SDS011;23002;52.676;6.432;2023-02-18T03:38:37;30.65;;;11.40;;
37087;SDS011;23002;52.676;6.432;2023-02-18T03:41:05;34.97;;;11.88;;
37087;SDS011;23002;52.676;6.432;2023-02-18T03:43:33;38.88;;;12.25;;
37087;SDS011;23002;52.676;6.432;2023-02-18T03:46:00;28.48;;;13.23;;
37087;SDS011;23002;52.676;6.432;2023-02-18T03:48:28;31.20;;;12.43;;
37087;SDS011;23002;52.676;6.432;2023-02-18T03:50:55;29.40;;;11.05;;
37087;SDS011;23002;52.676;6.432;2023-02-18T03:53:22;29.80;;;11.85;;
37087;SDS011;23002;52.676;6.432;2023-02-18T03:55:49;34.13;;;12.50;;
37087;SDS011;23002;52.676;6.432;2023-02-18T03:58:17;36.38;;;13.88;;
37087;SDS011;23002;52.676;6.432;2023-02-18T04:00:44;33.72;;;10.77;;
37087;SDS011;23002;52.676;6.432;2023-02-18T04:03:11;31.63;;;11.90;;
37087;SDS011;23002;52.676;6.432;2023-02-18T04:05:38;31.33;;;11.27;;
37087;SDS011;23002;52.676;6.432;2023-02-18T04:08:05;46.60;;;13.75;;
37087;SDS011;23002;52.676;6.432;2023-02-18T04:10:32;29.02;;;10.95;;
37087;SDS011;23002;52.676;6.432;2023-02-18T04:12:59;27.88;;;11.50;;
37087;SDS011;23002;52.676;6.432;2023-02-18T04:15:26;32.30;;;11.18;;
37087;SDS011;23002;52.676;6.432;2023-02-18T04:17:54;28.08;;;11.90;;
37087;SDS011;23002;52.676;6.432;2023-02-18T04:20:21;29.00;;;10.85;;
37087;SDS011;23002;52.676;6.432;2023-02-18T04:22:48;33.40;;;11.60;;
37087;SDS011;23002;52.676;6.432;2023-02-18T04:25:15;36.97;;;11.52;;
37087;SDS011;23002;52.676;6.432;2023-02-18T04:27:42;28.25;;;10.93;;
37087;SDS011;23002;52.676;6.432;2023-02-18T04:30:10;32.22;;;11.75;;
37087;SDS011;23002;52.676;6.432;2023-02-18T04:32:37;28.88;;;12.02;;
37087;SDS011;23002;52.676;6.432;2023-02-18T04:35:04;31.80;;;10.73;;
37087;SDS011;23002;52.676;6.432;2023-02-18T04:37:32;27.73;;;10.95;;
37087;SDS011;23002;52.676;6.432;2023-02-18T04:39:59;28.92;;;10.30;;
37087;SDS011;23002;52.676;6.432;2023-02-18T04:42:26;30.92;;;12.40;;
37087;SDS011;23002;52.676;6.432;2023-02-18T04:44:53;32.17;;;11.93;;
37087;SDS011;23002;52.676;6.432;2023-02-18T04:47:20;30.48;;;12.10;;
37087;SDS011;23002;52.676;6.432;2023-02-18T04:49:47;34.70;;;10.90;;
37087;SDS011;23002;52.676;6.432;2023-02-18T04:52:15;30.88;;;12.73;;
37087;SDS011;23002;52.676;6.432;2023-02-18T04:54:42;36.08;;;12.32;;
37087;SDS011;23002;52.676;6.432;2023-02-18T04:57:09;39.72;;;12.55;;
37087;SDS011;23002;52.676;6.432;2023-02-18T04:59:36;32.40;;;11.75;;
37087;SDS011;23002;52.676;6.432;2023-02-18T05:02:04;30.80;;;11.07;;
37087;SDS011;23002;52.676;6.432;2023-02-18T05:04:31;33.53;;;11.18;;
37087;SDS011;23002;52.676;6.432;2023-02-18T05:06:58;34.75;;;12.32;;
37087;SDS011;23002;52.676;6.432;2023-02-18T05:09:25;37.45;;;14.40;;
37087;SDS011;23002;52.676;6.432;2023-02-18T05:11:53;37.72;;;12.60;;
37087;SDS011;23002;52.676;6.432;2023-02-18T05:14:20;33.92;;;11.38;;
37087;SDS011;23002;52.676;6.432;2023-02-18T05:16:47;35.75;;;12.57;;
37087;SDS011;23002;52.676;6.432;2023-02-18T05:19:14;35.67;;;11.05;;
37087;SDS011;23002;52.676;6.432;2023-02-18T05:21:42;30.73;;;10.77;;
37087;SDS011;23002;52.676;6.432;2023-02-18T05:24:09;27.15;;;9.77;;
37087;SDS011;23002;52.676;6.432;2023-02-18T05:26:36;28.75;;;9.35;;
37087;SDS011;23002;52.676;6.432;2023-02-18T05:29:04;29.23;;;10.73;;
37087;SDS011;23002;52.676;6.432;2023-02-18T05:31:31;30.42;;;10.30;;
37087;SDS011;23002;52.676;6.432;2023-02-18T05:33:58;25.20;;;9.63;;
37087;SDS011;23002;52.676;6.432;2023-02-18T05:36:25;26.50;;;9.68;;
37087;SDS011;23002;52.676;6.432;2023-02-18T05:38:52;24.20;;;8.70;;
37087;SDS011;23002;52.676;6.432;2023-02-18T05:41:19;27.42;;;9.48;;
37087;SDS011;23002;52.676;6.432;2023-02-18T05:43:46;29.33;;;8.73;;
37087;SDS011;23002;52.676;6.432;2023-02-18T05:46:32;24.58;;;8.00;;
37087;SDS011;23002;52.676;6.432;2023-02-18T05:49:00;23.10;;;8.00;;
37087;SDS011;23002;52.676;6.432;2023-02-18T05:51:27;19.90;;;7.97;;
37087;SDS011;23002;52.676;6.432;2023-02-18T05:53:54;22.45;;;7.50;;
37087;SDS011;23002;52.676;6.432;2023-02-18T05:56:21;19.02;;;6.25;;
37087;SDS011;23002;52.676;6.432;2023-02-18T05:58:48;16.75;;;6.60;;
37087;SDS011;23002;52.676;6.432;2023-02-18T06:01:16;19.25;;;5.63;;
37087;SDS011;23002;52.676;6.432;2023-02-18T06:03:43;15.40;;;5.65;;
37087;SDS011;23002;52.676;6.432;2023-02-18T06:06:10;17.08;;;5.20;;
37087;SDS011;23002;52.676;6.432;2023-02-18T06:08:37;13.90;;;5.20;;
37087;SDS011;23002;52.676;6.432;2023-02-18T06:11:05;13.20;;;5.43;;
37087;SDS011;23002;52.676;6.432;2023-02-18T06:13:32;13.45;;;5.07;;
37087;SDS011;23002;52.676;6.432;2023-02-18T06:15:59;13.15;;;5.43;;
37087;SDS011;23002;52.676;6.432;2023-02-18T06:18:26;12.10;;;3.97;;
37087;SDS011;23002;52.676;6.432;2023-02-18T06:20:53;10.00;;;4.35;;
37087;SDS011;23002;52.676;6.432;2023-02-18T06:23:20;12.35;;;4.43;;
37087;SDS011;23002;52.676;6.432;2023-02-18T06:25:48;8.43;;;3.60;;
37087;SDS011;23002;52.676;6.432;2023-02-18T06:28:15;10.95;;;4.25;;
37087;SDS011;23002;52.676;6.432;2023-02-18T06:30:43;7.80;;;3.38;;
37087;SDS011;23002;52.676;6.432;2023-02-18T06:33:11;8.25;;;3.53;;
37087;SDS011;23002;52.676;6.432;2023-02-18T06:35:38;8.98;;;3.60;;
37087;SDS011;23002;52.676;6.432;2023-02-18T06:38:05;9.75;;;3.40;;
37087;SDS011;23002;52.676;6.432;2023-02-18T06:40:32;8.60;;;3.92;;
37087;SDS011;23002;52.676;6.432;2023-02-18T06:42:59;9.40;;;4.07;;
37087;SDS011;23002;52.676;6.432;2023-02-18T06:45:27;10.85;;;3.72;;
37087;SDS011;23002;52.676;6.432;2023-02-18T06:47:54;9.75;;;4.55;;
37087;SDS011;23002;52.676;6.432;2023-02-18T06:50:21;9.88;;;4.10;;
37087;SDS011;23002;52.676;6.432;2023-02-18T06:52:48;10.70;;;4.45;;
37087;SDS011;23002;52.676;6.432;2023-02-18T06:55:15;12.68;;;5.13;;
37087;SDS011;23002;52.676;6.432;2023-02-18T06:57:42;12.00;;;4.55;;
37087;SDS011;23002;52.676;6.432;2023-02-18T07:00:09;11.95;;;4.40;;
37087;SDS011;23002;52.676;6.432;2023-02-18T07:02:37;11.13;;;5.25;;
37087;SDS011;23002;52.676;6.432;2023-02-18T07:05:04;16.30;;;6.03;;
37087;SDS011;23002;52.676;6.432;2023-02-18T07:07:31;13.70;;;5.55;;
37087;SDS011;23002;52.676;6.432;2023-02-18T07:09:58;16.20;;;6.10;;
37087;SDS011;23002;52.676;6.432;2023-02-18T07:12:26;15.18;;;6.35;;
37087;SDS011;23002;52.676;6.432;2023-02-18T07:14:53;13.15;;;5.82;;
37087;SDS011;23002;52.676;6.432;2023-02-18T07:17:20;17.55;;;6.85;;
37087;SDS011;23002;52.676;6.432;2023-02-18T07:19:47;13.75;;;6.15;;
37087;SDS011;23002;52.676;6.432;2023-02-18T07:22:14;17.27;;;7.80;;
37087;SDS011;23002;52.676;6.432;2023-02-18T07:24:41;14.05;;;6.07;;
37087;SDS011;23002;52.676;6.432;2023-02-18T07:27:09;15.98;;;6.07;;
37087;SDS011;23002;52.676;6.432;2023-02-18T07:29:36;13.43;;;5.22;;
37087;SDS011;23002;52.676;6.432;2023-02-18T07:32:03;18.67;;;6.07;;
37087;SDS011;23002;52.676;6.432;2023-02-18T07:34:30;14.10;;;6.20;;
37087;SDS011;23002;52.676;6.432;2023-02-18T07:36:57;13.65;;;5.68;;
37087;SDS011;23002;52.676;6.432;2023-02-18T07:39:24;15.15;;;5.30;;
37087;SDS011;23002;52.676;6.432;2023-02-18T07:41:51;11.85;;;5.25;;
37087;SDS011;23002;52.676;6.432;2023-02-18T07:44:19;12.32;;;5.15;;
37087;SDS011;23002;52.676;6.432;2023-02-18T07:46:46;17.98;;;5.57;;
37087;SDS011;23002;52.676;6.432;2023-02-18T07:49:13;12.25;;;5.13;;
37087;SDS011;23002;52.676;6.432;2023-02-18T07:51:40;13.88;;;5.07;;
37087;SDS011;23002;52.676;6.432;2023-02-18T07:54:08;16.15;;;5.40;;
37087;SDS011;23002;52.676;6.432;2023-02-18T07:56:35;11.52;;;5.38;;
37087;SDS011;23002;52.676;6.432;2023-02-18T07:59:02;10.93;;;4.80;;
37087;SDS011;23002;52.676;6.432;2023-02-18T08:01:29;11.48;;;4.55;;
37087;SDS011;23002;52.676;6.432;2023-02-18T08:03:56;11.90;;;4.35;;
37087;SDS011;23002;52.676;6.432;2023-02-18T08:06:34;11.57;;;5.03;;
37087;SDS011;23002;52.676;6.432;2023-02-18T08:09:01;12.00;;;4.57;;
37087;SDS011;23002;52.676;6.432;2023-02-18T08:11:29;12.95;;;5.25;;
37087;SDS011;23002;52.676;6.432;2023-02-18T08:13:56;9.30;;;3.63;;
37087;SDS011;23002;52.676;6.432;2023-02-18T08:16:23;8.60;;;3.97;;
37087;SDS011;23002;52.676;6.432;2023-02-18T08:18:51;12.10;;;3.83;;
37087;SDS011;23002;52.676;6.432;2023-02-18T08:21:19;13.00;;;4.32;;
37087;SDS011;23002;52.676;6.432;2023-02-18T08:23:46;9.38;;;3.50;;
37087;SDS011;23002;52.676;6.432;2023-02-18T08:26:14;8.98;;;3.65;;
37087;SDS011;23002;52.676;6.432;2023-02-18T08:28:42;7.82;;;3.10;;
37087;SDS011;23002;52.676;6.432;2023-02-18T08:31:27;8.02;;;3.13;;
37087;SDS011;23002;52.676;6.432;2023-02-18T08:33:55;7.95;;;3.08;;
37087;SDS011;23002;52.676;6.432;2023-02-18T08:36:23;9.48;;;4.05;;
37087;SDS011;23002;52.676;6.432;2023-02-18T08:38:51;7.60;;;3.22;;
37087;SDS011;23002;52.676;6.432;2023-02-18T08:41:18;7.63;;;2.85;;
37087;SDS011;23002;52.676;6.432;2023-02-18T08:43:45;8.75;;;2.78;;
37087;SDS011;23002;52.676;6.432;2023-02-18T08:46:13;7.13;;;2.60;;
37087;SDS011;23002;52.676;6.432;2023-02-18T08:48:50;6.28;;;2.85;;
37087;SDS011;23002;52.676;6.432;2023-02-18T08:51:18;7.30;;;2.78;;
37087;SDS011;23002;52.676;6.432;2023-02-18T08:53:45;8.90;;;3.72;;
37087;SDS011;23002;52.676;6.432;2023-02-18T08:56:14;5.78;;;2.83;;
37087;SDS011;23002;52.676;6.432;2023-02-18T08:58:42;7.00;;;3.05;;
37087;SDS011;23002;52.676;6.432;2023-02-18T09:01:10;8.77;;;2.47;;
37087;SDS011;23002;52.676;6.432;2023-02-18T09:03:38;8.02;;;2.47;;
37087;SDS011;23002;52.676;6.432;2023-02-18T09:06:05;7.00;;;2.55;;
37087;SDS011;23002;52.676;6.432;2023-02-18T09:08:33;8.93;;;2.22;;
37087;SDS011;23002;52.676;6.432;2023-02-18T09:11:00;10.02;;;2.90;;
37087;SDS011;23002;52.676;6.432;2023-02-18T09:13:30;7.05;;;2.38;;
37087;SDS011;23002;52.676;6.432;2023-02-18T09:16:01;6.05;;;2.00;;
37087;SDS011;23002;52.676;6.432;2023-02-18T09:18:30;7.05;;;2.45;;
37087;SDS011;23002;52.676;6.432;2023-02-18T09:20:57;5.30;;;1.80;;
37087;SDS011;23002;52.676;6.432;2023-02-18T09:23:26;4.70;;;2.22;;
37087;SDS011;23002;52.676;6.432;2023-02-18T09:25:53;10.15;;;2.97;;
37087;SDS011;23002;52.676;6.432;2023-02-18T09:28:21;6.53;;;2.25;;
37087;SDS011;23002;52.676;6.432;2023-02-18T09:30:48;4.65;;;1.95;;
37087;SDS011;23002;52.676;6.432;2023-02-18T09:33:15;6.15;;;2.17;;
37087;SDS011;23002;52.676;6.432;2023-02-18T09:35:43;6.35;;;1.88;;
37087;SDS011;23002;52.676;6.432;2023-02-18T09:38:13;5.70;;;1.70;;
37087;SDS011;23002;52.676;6.432;2023-02-18T09:40:44;7.57;;;1.75;;
37087;SDS011;23002;52.676;6.432;2023-02-18T09:43:17;10.02;;;1.73;;
37087;SDS011;23002;52.676;6.432;2023-02-18T09:45:44;9.73;;;2.00;;
37087;SDS011;23002;52.676;6.432;2023-02-18T09:48:12;9.10;;;1.98;;
37087;SDS011;23002;52.676;6.432;2023-02-18T09:50:39;4.85;;;1.40;;
37087;SDS011;23002;52.676;6.432;2023-02-18T09:53:06;11.73;;;2.10;;
37087;SDS011;23002;52.676;6.432;2023-02-18T09:55:38;12.57;;;1.70;;
37087;SDS011;23002;52.676;6.432;2023-02-18T09:58:13;4.78;;;1.23;;
37087;SDS011;23002;52.676;6.432;2023-02-18T10:00:44;5.88;;;1.77;;
37087;SDS011;23002;52.676;6.432;2023-02-18T10:03:17;4.38;;;1.48;;
37087;SDS011;23002;52.676;6.432;2023-02-18T10:05:50;4.15;;;1.60;;
37087;SDS011;23002;52.676;6.432;2023-02-18T10:08:31;6.00;;;1.38;;
37087;SDS011;23002;52.676;6.432;2023-02-18T10:10:59;8.88;;;2.22;;
37087;SDS011;23002;52.676;6.432;2023-02-18T10:13:28;6.93;;;1.50;;
37087;SDS011;23002;52.676;6.432;2023-02-18T10:15:55;9.38;;;2.83;;
37087;SDS011;23002;52.676;6.432;2023-02-18T10:18:30;6.47;;;1.50;;
37087;SDS011;23002;52.676;6.432;2023-02-18T10:21:00;5.93;;;1.10;;
37087;SDS011;23002;52.676;6.432;2023-02-18T10:23:30;5.40;;;1.67;;
37087;SDS011;23002;52.676;6.432;2023-02-18T10:25:59;9.15;;;1.65;;
37087;SDS011;23002;52.676;6.432;2023-02-18T10:28:29;3.88;;;0.98;;
37087;SDS011;23002;52.676;6.432;2023-02-18T10:30:58;9.63;;;1.73;;
37087;SDS011;23002;52.676;6.432;2023-02-18T10:38:52;4.30;;;1.10;;
37087;SDS011;23002;52.676;6.432;2023-02-18T10:49:24;9.18;;;1.45;;
37087;SDS011;23002;52.676;6.432;2023-02-18T10:51:55;7.47;;;1.38;;
37087;SDS011;23002;52.676;6.432;2023-02-18T10:54:24;8.63;;;1.90;;
37087;SDS011;23002;52.676;6.432;2023-02-18T10:56:52;5.10;;;1.20;;
37087;SDS011;23002;52.676;6.432;2023-02-18T10:59:25;9.00;;;1.35;;
37087;SDS011;23002;52.676;6.432;2023-02-18T11:01:59;8.05;;;1.75;;
37087;SDS011;23002;52.676;6.432;2023-02-18T11:04:32;4.70;;;2.13;;
37087;SDS011;23002;52.676;6.432;2023-02-18T11:07:10;11.77;;;1.40;;
37087;SDS011;23002;52.676;6.432;2023-02-18T11:15:26;7.43;;;1.45;;
37087;SDS011;23002;52.676;6.432;2023-02-18T11:17:53;6.47;;;1.42;;
37087;SDS011;23002;52.676;6.432;2023-02-18T11:22:48;6.10;;;1.33;;
37087;SDS011;23002;52.676;6.432;2023-02-18T11:28:05;10.73;;;1.27;;
37087;SDS011;23002;52.676;6.432;2023-02-18T11:30:33;6.53;;;0.95;;
37087;SDS011;23002;52.676;6.432;2023-02-18T11:33:24;5.85;;;0.90;;
37087;SDS011;23002;52.676;6.432;2023-02-18T11:35:49;20.40;;;2.20;;
37087;SDS011;23002;52.676;6.432;2023-02-18T11:38:36;5.82;;;1.17;;
37087;SDS011;23002;52.676;6.432;2023-02-18T11:41:08;12.60;;;1.38;;
37087;SDS011;23002;52.676;6.432;2023-02-18T11:43:39;8.68;;;1.60;;
37087;SDS011;23002;52.676;6.432;2023-02-18T11:46:11;9.23;;;1.50;;
37087;SDS011;23002;52.676;6.432;2023-02-18T11:48:38;5.20;;;1.00;;
37087;SDS011;23002;52.676;6.432;2023-02-18T11:56:29;7.97;;;1.40;;
37087;SDS011;23002;52.676;6.432;2023-02-18T11:58:57;6.82;;;1.13;;
37087;SDS011;23002;52.676;6.432;2023-02-18T12:01:34;9.75;;;1.42;;
37087;SDS011;23002;52.676;6.432;2023-02-18T12:09:08;4.82;;;0.93;;
37087;SDS011;23002;52.676;6.432;2023-02-18T12:11:41;5.93;;;1.27;;
37087;SDS011;23002;52.676;6.432;2023-02-18T12:14:19;2.75;;;1.10;;
37087;SDS011;23002;52.676;6.432;2023-02-18T12:19:43;5.20;;;1.38;;
37087;SDS011;23002;52.676;6.432;2023-02-18T12:24:48;5.50;;;1.30;;
37087;SDS011;23002;52.676;6.432;2023-02-18T12:27:40;3.53;;;1.20;;
37087;SDS011;23002;52.676;6.432;2023-02-18T12:43:20;4.25;;;1.10;;
37087;SDS011;23002;52.676;6.432;2023-02-18T13:01:34;4.38;;;1.08;;
37087;SDS011;23002;52.676;6.432;2023-02-18T13:14:48;4.10;;;1.33;;
37087;SDS011;23002;52.676;6.432;2023-02-18T13:17:23;10.55;;;1.55;;
37087;SDS011;23002;52.676;6.432;2023-02-18T13:19:56;5.07;;;1.38;;
37087;SDS011;23002;52.676;6.432;2023-02-18T13:22:24;4.72;;;1.17;;
37087;SDS011;23002;52.676;6.432;2023-02-18T13:24:53;5.63;;;1.77;;
37087;SDS011;23002;52.676;6.432;2023-02-18T13:30:41;5.18;;;0.93;;
37087;SDS011;23002;52.676;6.432;2023-02-18T13:35:36;6.70;;;1.42;;
37087;SDS011;23002;52.676;6.432;2023-02-18T13:40:44;4.32;;;1.35;;
37087;SDS011;23002;52.676;6.432;2023-02-18T13:43:19;3.33;;;1.05;;
37087;SDS011;23002;52.676;6.432;2023-02-18T13:48:51;7.78;;;2.20;;
37087;SDS011;23002;52.676;6.432;2023-02-18T13:51:38;6.55;;;1.50;;
37087;SDS011;23002;52.676;6.432;2023-02-18T13:54:27;7.22;;;1.60;;
37087;SDS011;23002;52.676;6.432;2023-02-18T13:56:54;7.03;;;1.58;;
37087;SDS011;23002;52.676;6.432;2023-02-18T13:59:27;10.77;;;1.52;;
37087;SDS011;23002;52.676;6.432;2023-02-18T14:02:06;6.50;;;1.10;;
37087;SDS011;23002;52.676;6.432;2023-02-18T14:09:50;7.15;;;1.20;;
37087;SDS011;23002;52.676;6.432;2023-02-18T14:20:32;8.60;;;1.48;;
37087;SDS011;23002;52.676;6.432;2023-02-18T14:23:37;4.60;;;0.95;;
37087;SDS011;23002;52.676;6.432;2023-02-18T14:33:51;8.90;;;2.30;;
37087;SDS011;23002;52.676;6.432;2023-02-18T14:39:10;5.03;;;1.30;;
37087;SDS011;23002;52.676;6.432;2023-02-18T14:44:10;4.97;;;1.17;;
37087;SDS011;23002;52.676;6.432;2023-02-18T14:49:42;2.72;;;0.85;;
37087;SDS011;23002;52.676;6.432;2023-02-18T14:52:53;6.45;;;1.30;;
37087;SDS011;23002;52.676;6.432;2023-02-18T14:55:01;3.70;;;1.20;;
37087;SDS011;23002;52.676;6.432;2023-02-18T14:57:39;3.42;;;1.10;;
37087;SDS011;23002;52.676;6.432;2023-02-18T15:00:13;5.47;;;1.52;;
37087;SDS011;23002;52.676;6.432;2023-02-18T15:02:41;3.60;;;1.10;;
37087;SDS011;23002;52.676;6.432;2023-02-18T15:05:12;6.18;;;1.80;;
37087;SDS011;23002;52.676;6.432;2023-02-18T15:10:13;5.78;;;1.35;;
37087;SDS011;23002;52.676;6.432;2023-02-18T15:12:41;7.00;;;1.20;;
37087;SDS011;23002;52.676;6.432;2023-02-18T15:15:09;6.55;;;1.10;;
37087;SDS011;23002;52.676;6.432;2023-02-18T15:17:43;4.60;;;0.95;;
37087;SDS011;23002;52.676;6.432;2023-02-18T15:20:11;4.70;;;1.00;;
37087;SDS011;23002;52.676;6.432;2023-02-18T15:22:38;7.13;;;1.00;;
37087;SDS011;23002;52.676;6.432;2023-02-18T15:25:08;3.88;;;1.23;;
37087;SDS011;23002;52.676;6.432;2023-02-18T15:27:37;6.07;;;1.75;;
37087;SDS011;23002;52.676;6.432;2023-02-18T15:32:39;5.95;;;1.73;;
37087;SDS011;23002;52.676;6.432;2023-02-18T15:35:16;6.72;;;0.90;;
37087;SDS011;23002;52.676;6.432;2023-02-18T15:37:44;6.85;;;0.90;;
37087;SDS011;23002;52.676;6.432;2023-02-18T15:40:14;5.80;;;1.42;;
37087;SDS011;23002;52.676;6.432;2023-02-18T15:42:42;4.07;;;1.13;;
37087;SDS011;23002;52.676;6.432;2023-02-18T15:47:43;7.30;;;1.17;;
37087;SDS011;23002;52.676;6.432;2023-02-18T15:50:16;6.13;;;1.00;;
37087;SDS011;23002;52.676;6.432;2023-02-18T15:52:43;6.72;;;1.27;;
37087;SDS011;23002;52.676;6.432;2023-02-18T15:55:44;10.68;;;1.67;;
37087;SDS011;23002;52.676;6.432;2023-02-18T15:58:06;8.57;;;1.30;;
37087;SDS011;23002;52.676;6.432;2023-02-18T16:00:38;11.20;;;1.55;;
37087;SDS011;23002;52.676;6.432;2023-02-18T16:03:19;11.30;;;2.13;;
37087;SDS011;23002;52.676;6.432;2023-02-18T16:05:47;7.28;;;1.98;;
37087;SDS011;23002;52.676;6.432;2023-02-18T16:08:15;6.50;;;1.10;;
37087;SDS011;23002;52.676;6.432;2023-02-18T16:10:44;7.85;;;1.45;;
37087;SDS011;23002;52.676;6.432;2023-02-18T16:13:13;8.10;;;1.30;;
37087;SDS011;23002;52.676;6.432;2023-02-18T16:15:42;7.53;;;1.38;;
37087;SDS011;23002;52.676;6.432;2023-02-18T16:20:56;5.55;;;1.40;;
37087;SDS011;23002;52.676;6.432;2023-02-18T16:23:25;5.43;;;1.08;;
37087;SDS011;23002;52.676;6.432;2023-02-18T16:25:53;3.80;;;0.98;;
37087;SDS011;23002;52.676;6.432;2023-02-18T16:28:24;3.42;;;1.35;;
37087;SDS011;23002;52.676;6.432;2023-02-18T16:30:53;6.55;;;1.30;;
37087;SDS011;23002;52.676;6.432;2023-02-18T16:33:20;6.22;;;1.20;;
37087;SDS011;23002;52.676;6.432;2023-02-18T16:35:47;5.07;;;1.45;;
37087;SDS011;23002;52.676;6.432;2023-02-18T16:38:20;6.38;;;0.93;;
37087;SDS011;23002;52.676;6.432;2023-02-18T16:40:48;4.82;;;1.30;;
37087;SDS011;23002;52.676;6.432;2023-02-18T16:43:16;8.57;;;1.40;;
37087;SDS011;23002;52.676;6.432;2023-02-18T16:45:48;7.40;;;1.13;;
37087;SDS011;23002;52.676;6.432;2023-02-18T16:48:17;4.13;;;1.13;;
37087;SDS011;23002;52.676;6.432;2023-02-18T16:50:45;7.10;;;1.13;;
37087;SDS011;23002;52.676;6.432;2023-02-18T16:53:15;3.60;;;1.15;;
37087;SDS011;23002;52.676;6.432;2023-02-18T16:55:42;3.97;;;0.90;;
37087;SDS011;23002;52.676;6.432;2023-02-18T16:58:09;5.03;;;1.60;;
37087;SDS011;23002;52.676;6.432;2023-02-18T17:00:36;3.85;;;1.10;;
37087;SDS011;23002;52.676;6.432;2023-02-18T17:03:04;9.63;;;1.20;;
37087;SDS011;23002;52.676;6.432;2023-02-18T17:05:32;2.08;;;0.73;;
37087;SDS011;23002;52.676;6.432;2023-02-18T17:08:22;4.53;;;1.60;;
37087;SDS011;23002;52.676;6.432;2023-02-18T17:10:50;6.45;;;1.80;;
37087;SDS011;23002;52.676;6.432;2023-02-18T17:13:18;5.55;;;1.08;;
37087;SDS011;23002;52.676;6.432;2023-02-18T17:15:46;4.35;;;1.05;;
37087;SDS011;23002;52.676;6.432;2023-02-18T17:18:14;7.30;;;1.30;;
37087;SDS011;23002;52.676;6.432;2023-02-18T17:20:41;8.82;;;2.70;;
37087;SDS011;23002;52.676;6.432;2023-02-18T17:23:18;7.45;;;1.70;;
37087;SDS011;23002;52.676;6.432;2023-02-18T17:25:47;8.63;;;1.40;;
37087;SDS011;23002;52.676;6.432;2023-02-18T17:28:14;7.85;;;1.45;;
37087;SDS011;23002;52.676;6.432;2023-02-18T17:30:45;7.88;;;1.33;;
37087;SDS011;23002;52.676;6.432;2023-02-18T17:33:14;10.15;;;2.05;;
37087;SDS011;23002;52.676;6.432;2023-02-18T17:35:42;6.90;;;1.85;;
37087;SDS011;23002;52.676;6.432;2023-02-18T17:38:10;7.78;;;1.65;;
37087;SDS011;23002;52.676;6.432;2023-02-18T17:40:37;8.32;;;1.23;;
37087;SDS011;23002;52.676;6.432;2023-02-18T17:43:04;6.53;;;1.42;;
37087;SDS011;23002;52.676;6.432;2023-02-18T17:45:35;8.13;;;1.55;;